Time;durP1;ratioP1;P1;durP2;ratioP2;P2;SDS_P1;SDS_P2;PMS_P1;PMS_P2;Temp;Humidity;BMP_temperature;BMP_pressure;BME280_temperature;BME280_humidity;BME280_pressure;Samples;Min_cycle;Max_cycle;Signal;HPM_P1;HPM_P2
2023/02/20 00:00:36;;;;;;;2.13;1.63;;;12.00;37.70;;;;;;10485555;28;20726;-70
2023/02/20 00:05:39;;;;;;;3.77;1.73;;;12.00;37.80;;;;;;10473724;28;20240;-70
2023/02/20 00:10:43;;;;;;;2.27;1.70;;;12.00;37.70;;;;;;10474516;28;20225;-70
2023/02/20 00:15:47;;;;;;;2.37;1.60;;;12.00;37.80;;;;;;10481124;28;20225;-70
2023/02/20 00:20:51;;;;;;;3.40;2.00;;;12.00;37.80;;;;;;10475199;28;20229;-70
2023/02/20 00:25:54;;;;;;;3.07;1.63;;;12.00;37.80;;;;;;10474848;28;20251;-70
2023/02/20 00:30:58;;;;;;;3.70;1.83;;;11.90;37.90;;;;;;10476588;28;20228;-70
2023/02/20 00:36:01;;;;;;;5.00;2.00;;;11.90;37.90;;;;;;10464263;28;20325;-70
2023/02/20 00:41:05;;;;;;;3.07;1.80;;;11.90;37.90;;;;;;10478376;28;20243;-70
2023/02/20 00:46:11;;;;;;;2.90;1.90;;;11.90;38.00;;;;;;10466334;28;20237;-70
2023/02/20 00:51:15;;;;;;;2.97;1.90;;;11.80;38.20;;;;;;10463612;28;20340;-70
2023/02/20 00:56:18;;;;;;;3.97;1.90;;;11.80;38.10;;;;;;10476192;28;20316;-70
2023/02/20 01:01:23;;;;;;;3.73;1.90;;;11.80;38.00;;;;;;10472480;28;20316;-70
2023/02/20 01:06:26;;;;;;;1.80;1.70;;;11.80;38.10;;;;;;10469949;28;20286;-70
2023/02/20 01:11:30;;;;;;;2.20;1.70;;;11.80;38.10;;;;;;10484676;28;20262;-70
2023/02/20 01:16:34;;;;;;;2.93;1.83;;;11.80;38.10;;;;;;10476094;28;20255;-70
2023/02/20 01:21:37;;;;;;;2.90;1.63;;;11.80;38.10;;;;;;10461860;28;20638;-70
2023/02/20 01:26:41;;;;;;;3.77;2.43;;;11.80;38.10;;;;;;10470317;28;20601;-70
2023/02/20 01:31:49;;;;;;;2.80;2.00;;;11.80;38.20;;;;;;10472388;28;20949;-70
2023/02/20 01:36:54;;;;;;;3.03;1.93;;;11.80;38.30;;;;;;10471551;28;20264;-70
2023/02/20 01:41:59;;;;;;;1.97;1.80;;;11.70;38.20;;;;;;10478727;28;20228;-70
2023/02/20 01:47:06;;;;;;;2.67;1.80;;;11.70;38.20;;;;;;10464028;28;20595;-70
2023/02/20 01:52:13;;;;;;;5.10;1.90;;;11.70;38.10;;;;;;10472221;28;20729;-70
2023/02/20 01:57:23;;;;;;;2.27;1.83;;;11.80;38.20;;;;;;10467162;28;20228;-69
2023/02/20 02:02:31;;;;;;;3.10;1.90;;;11.80;38.10;;;;;;10461399;28;20275;-69
2023/02/20 02:07:34;;;;;;;3.07;2.00;;;11.80;38.10;;;;;;10472886;28;20283;-70
2023/02/20 02:12:37;;;;;;;3.67;2.10;;;11.70;38.00;;;;;;10479443;28;20740;-70
2023/02/20 02:18:13;;;;;;;4.97;2.10;;;11.70;38.10;;;;;;10461660;28;20752;-70
2023/02/20 02:23:58;;;;;;;1.97;1.87;;;11.70;38.30;;;;;;10476630;28;20604;-69
2023/02/20 02:29:30;;;;;;;3.23;2.00;;;11.70;38.30;;;;;;10481349;28;20608;-69
2023/02/20 02:35:04;;;;;;;4.00;2.27;;;11.60;38.30;;;;;;10465192;28;20285;-69
2023/02/20 02:40:19;;;;;;;2.47;1.83;;;11.60;38.40;;;;;;10472503;28;20620;-70
2023/02/20 02:45:30;;;;;;;2.63;1.90;;;11.60;38.40;;;;;;10461436;28;20246;-70
2023/02/20 02:50:35;;;;;;;3.43;1.90;;;11.50;38.50;;;;;;10473591;28;20297;-70
2023/02/20 02:55:40;;;;;;;2.20;1.70;;;11.50;38.30;;;;;;10466978;28;20240;-69
2023/02/20 03:00:49;;;;;;;4.07;2.10;;;11.50;38.30;;;;;;10461442;28;20229;-70
2023/02/20 03:05:58;;;;;;;3.63;2.00;;;11.60;38.50;;;;;;10473184;28;20653;-70
2023/02/20 03:11:06;;;;;;;2.50;1.80;;;11.50;38.40;;;;;;10465844;28;20241;-70
2023/02/20 03:16:11;;;;;;;2.50;2.03;;;11.50;38.60;;;;;;10471237;28;20221;-70
2023/02/20 03:21:17;;;;;;;2.93;2.10;;;11.50;38.60;;;;;;10481815;28;20246;-69
2023/02/20 03:26:28;;;;;;;3.33;1.87;;;11.40;38.60;;;;;;10487032;28;20231;-69
2023/02/20 03:31:35;;;;;;;5.97;2.10;;;11.40;38.90;;;;;;10478569;28;20597;-70
2023/02/20 03:47:29;;;;;;;3.87;2.30;;;11.50;38.80;;;;;;10473055;28;20247;-70
2023/02/20 03:52:32;;;;;;;4.23;2.23;;;11.40;38.60;;;;;;10480628;28;20232;-70
2023/02/20 03:57:41;;;;;;;3.57;2.07;;;11.40;38.60;;;;;;10474494;28;20585;-70
2023/02/20 04:02:48;;;;;;;3.53;2.17;;;11.40;38.90;;;;;;10483831;28;20216;-70
2023/02/20 04:07:56;;;;;;;3.20;2.47;;;11.40;38.70;;;;;;10483923;28;20362;-69
2023/02/20 04:13:02;;;;;;;3.60;2.80;;;11.30;38.80;;;;;;10474963;28;20323;-69
2023/02/20 04:18:09;;;;;;;3.10;2.27;;;11.30;38.70;;;;;;10480309;28;20233;-70
2023/02/20 04:23:15;;;;;;;6.70;2.50;;;11.20;38.80;;;;;;10486359;28;20233;-69
2023/02/20 04:28:21;;;;;;;3.47;2.30;;;11.20;39.00;;;;;;10476267;28;20647;-69
2023/02/20 04:33:24;;;;;;;3.37;2.10;;;11.10;38.90;;;;;;10472055;28;20775;-70
2023/02/20 04:38:27;;;;;;;5.50;2.57;;;11.10;38.70;;;;;;10482306;28;20241;-70
2023/02/20 04:43:32;;;;;;;3.47;2.17;;;11.00;38.60;;;;;;10475029;28;20233;-69
2023/02/20 04:48:35;;;;;;;3.40;2.00;;;11.00;38.80;;;;;;10473199;28;20609;-70
2023/02/20 04:53:38;;;;;;;3.10;2.07;;;11.00;38.80;;;;;;10480530;28;20637;-69
2023/02/20 04:58:48;;;;;;;4.13;2.40;;;10.90;38.80;;;;;;10482279;28;20244;-70
2023/02/20 05:03:51;;;;;;;4.73;2.60;;;10.90;39.20;;;;;;10486369;28;20224;-69
2023/02/20 05:08:54;;;;;;;4.83;2.60;;;10.80;38.90;;;;;;10466337;28;20232;-69
2023/02/20 05:13:59;;;;;;;5.23;2.90;;;10.70;38.90;;;;;;10473022;28;20236;-69
2023/02/20 05:19:02;;;;;;;5.27;2.80;;;10.70;39.00;;;;;;10471020;28;20233;-70
2023/02/20 05:24:06;;;;;;;3.73;2.73;;;10.70;39.10;;;;;;10476021;28;20228;-69
2023/02/20 05:29:13;;;;;;;3.60;2.50;;;10.70;39.10;;;;;;10475946;28;20312;-70
2023/02/20 05:34:16;;;;;;;4.53;2.80;;;10.60;38.90;;;;;;10481014;28;20236;-71
2023/02/20 05:39:19;;;;;;;5.27;3.27;;;10.60;38.90;;;;;;10465333;28;20251;-70
2023/02/20 05:44:26;;;;;;;3.87;3.37;;;10.60;38.90;;;;;;10472188;28;20235;-70
2023/02/20 05:49:29;;;;;;;4.73;2.80;;;10.50;39.10;;;;;;10468709;28;20237;-70
2023/02/20 05:54:33;;;;;;;5.30;3.13;;;10.40;39.00;;;;;;10465360;28;20228;-69
2023/02/20 05:59:37;;;;;;;4.53;3.00;;;10.40;39.10;;;;;;10470854;28;20709;-70
2023/02/20 06:04:40;;;;;;;4.47;2.70;;;10.30;39.40;;;;;;10476052;28;20264;-69
2023/02/20 06:09:44;;;;;;;4.07;2.83;;;10.30;39.40;;;;;;10458403;28;20788;-69
2023/02/20 06:14:48;;;;;;;3.90;3.00;;;10.30;39.40;;;;;;10480134;28;20647;-69
2023/02/20 06:19:52;;;;;;;7.07;3.90;;;10.30;39.70;;;;;;10466144;28;20232;-69
2023/02/20 06:24:55;;;;;;;9.27;3.20;;;10.20;39.50;;;;;;10463333;28;20231;-69
2023/02/20 06:30:00;;;;;;;4.60;2.80;;;10.20;39.60;;;;;;10476816;28;20611;-69
2023/02/20 06:35:03;;;;;;;4.13;2.60;;;10.30;39.90;;;;;;10457531;28;20603;-70
2023/02/20 06:40:07;;;;;;;4.53;2.90;;;10.20;39.70;;;;;;10469927;28;20236;-69
2023/02/20 06:45:12;;;;;;;4.07;3.00;;;10.30;39.80;;;;;;10473164;28;20236;-69
2023/02/20 06:50:17;;;;;;;3.80;2.37;;;10.30;39.70;;;;;;10466629;28;20232;-70
2023/02/20 06:55:20;;;;;;;3.30;2.77;;;10.30;39.40;;;;;;10466239;28;20574;-73
2023/02/20 07:00:26;;;;;;;4.60;2.87;;;10.40;40.30;;;;;;10470456;28;20236;-70
2023/02/20 07:05:29;;;;;;;3.93;2.80;;;10.40;39.60;;;;;;10455384;28;20652;-70
2023/02/20 07:10:32;;;;;;;3.30;2.50;;;10.40;39.40;;;;;;10460367;28;20241;-70
2023/02/20 07:15:37;;;;;;;5.47;2.73;;;10.40;39.30;;;;;;10465697;28;20236;-70
2023/02/20 07:20:40;;;;;;;3.97;3.20;;;10.30;39.40;;;;;;10460822;28;20686;-70
2023/02/20 07:25:44;;;;;;;3.43;2.77;;;10.30;39.40;;;;;;10470243;28;20515;-70
2023/02/20 07:30:48;;;;;;;5.67;3.17;;;10.30;39.70;;;;;;10470085;28;20721;-70
2023/02/20 07:35:52;;;;;;;4.80;3.10;;;10.40;39.60;;;;;;10461528;28;20709;-70
2023/02/20 07:40:55;;;;;;;3.40;2.90;;;10.50;39.40;;;;;;10473234;28;20236;-70
2023/02/20 07:45:59;;;;;;;4.50;2.80;;;10.50;39.40;;;;;;10467564;28;20228;-70
2023/02/20 07:51:03;;;;;;;5.13;3.00;;;10.60;39.60;;;;;;10461437;28;20319;-69
2023/02/20 07:56:06;;;;;;;4.83;2.80;;;10.60;39.50;;;;;;10470523;28;20693;-69
2023/02/20 08:01:11;;;;;;;3.70;2.90;;;10.70;39.40;;;;;;10472926;28;20245;-69
2023/02/20 08:06:17;;;;;;;4.37;2.70;;;10.80;39.30;;;;;;10474467;28;20715;-70
2023/02/20 08:11:23;;;;;;;3.47;2.40;;;11.00;39.50;;;;;;10480105;28;20607;-70
2023/02/20 08:16:28;;;;;;;3.07;2.47;;;11.10;40.00;;;;;;10475462;28;20228;-70
2023/02/20 08:21:31;;;;;;;4.27;2.43;;;11.20;39.20;;;;;;10476605;28;20315;-70
2023/02/20 08:26:34;;;;;;;3.70;2.80;;;11.30;39.10;;;;;;10481585;28;20228;-70
2023/02/20 08:31:39;;;;;;;4.20;2.73;;;11.40;38.90;;;;;;10467956;28;20244;-70
2023/02/20 08:36:42;;;;;;;5.20;3.00;;;11.40;38.70;;;;;;10475634;28;20853;-70
2023/02/20 08:41:46;;;;;;;4.70;2.77;;;11.50;38.70;;;;;;10480715;28;20225;-70
2023/02/20 08:46:52;;;;;;;4.60;2.90;;;11.60;38.90;;;;;;10473916;28;20236;-70
2023/02/20 08:51:57;;;;;;;3.40;2.33;;;11.80;38.70;;;;;;10481946;28;20239;-70
2023/02/20 08:57:00;;;;;;;3.60;2.43;;;11.90;38.80;;;;;;10471854;28;20236;-69
2023/02/20 09:02:04;;;;;;;4.03;3.17;;;12.10;38.80;;;;;;10476736;28;20311;-70
2023/02/20 09:07:07;;;;;;;4.73;2.97;;;12.20;38.70;;;;;;10478428;28;20236;-70
2023/02/20 09:12:11;;;;;;;3.60;2.47;;;12.40;38.60;;;;;;10466841;28;20236;-70
2023/02/20 09:17:16;;;;;;;4.37;2.67;;;12.60;38.80;;;;;;10471526;28;20236;-69
2023/02/20 09:22:22;;;;;;;7.40;5.73;;;12.70;38.50;;;;;;10481513;28;20289;-69
2023/02/20 09:27:25;;;;;;;8.07;5.17;;;13.00;38.00;;;;;;10468610;28;20236;-69
2023/02/20 09:32:30;;;;;;;3.83;2.80;;;13.10;37.70;;;;;;10464238;28;20247;-69
2023/02/20 09:37:33;;;;;;;5.40;2.83;;;13.10;36.60;;;;;;10467570;28;20732;-69
2023/02/20 09:42:43;;;;;;;4.37;2.17;;;13.20;37.10;;;;;;10464659;28;20251;-69
2023/02/20 09:48:04;;;;;;;2.43;1.90;;;13.30;36.60;;;;;;10459884;28;20236;-69
2023/02/20 09:53:17;;;;;;;2.77;2.10;;;13.40;36.10;;;;;;10473087;28;20224;-69
2023/02/20 09:58:26;;;;;;;3.93;2.13;;;13.50;36.30;;;;;;10464457;28;20244;-69
2023/02/20 10:03:39;;;;;;;1.83;1.63;;;13.60;36.00;;;;;;10471527;28;20232;-69
2023/02/20 10:08:42;;;;;;;2.27;1.70;;;13.60;35.80;;;;;;10469120;28;20231;-69
2023/02/20 10:13:59;;;;;;;2.77;1.80;;;13.70;36.00;;;;;;10463951;28;20682;-69
2023/02/20 10:19:16;;;;;;;2.57;1.30;;;13.90;34.80;;;;;;10471522;28;20246;-69
2023/02/20 10:24:34;;;;;;;3.23;1.80;;;14.00;34.70;;;;;;10473619;28;20272;-69
2023/02/20 10:29:40;;;;;;;1.80;1.50;;;14.10;33.10;;;;;;10464442;28;20286;-69
2023/02/20 10:34:51;;;;;;;2.27;1.73;;;14.20;34.50;;;;;;10483277;28;20244;-69
2023/02/20 10:40:01;;;;;;;2.07;1.40;;;14.30;34.00;;;;;;10474851;28;20353;-69
2023/02/20 10:45:10;;;;;;;2.10;1.70;;;14.40;33.90;;;;;;10475231;28;20502;-68
2023/02/20 10:50:21;;;;;;;1.77;1.40;;;14.50;33.70;;;;;;10478883;28;20235;-70
2023/02/20 10:55:31;;;;;;;1.80;1.50;;;14.60;34.10;;;;;;10475383;28;20243;-69
2023/02/20 11:00:39;;;;;;;3.57;1.77;;;14.70;33.80;;;;;;10472889;28;20220;-70
2023/02/20 11:05:49;;;;;;;2.47;1.57;;;14.80;32.90;;;;;;10479256;28;20220;-69
2023/02/20 11:10:56;;;;;;;2.40;1.40;;;14.90;32.30;;;;;;10475380;28;20224;-69
2023/02/20 11:16:00;;;;;;;1.47;1.17;;;14.90;32.00;;;;;;10479270;28;20638;-69
2023/02/20 11:21:05;;;;;;;2.03;1.53;;;15.00;33.20;;;;;;10478044;28;20229;-70
2023/02/20 11:26:32;;;;;;;2.30;1.50;;;15.10;32.20;;;;;;10466629;28;20235;-70
2023/02/20 11:31:36;;;;;;;2.27;1.60;;;15.20;32.30;;;;;;10476704;28;20232;-69
2023/02/20 11:36:46;;;;;;;3.40;1.90;;;15.20;32.30;;;;;;10477472;28;20297;-70
2023/02/20 11:42:04;;;;;;;2.10;1.80;;;15.30;32.40;;;;;;10483241;28;20227;-70
2023/02/20 11:47:23;;;;;;;5.27;1.53;;;15.40;32.50;;;;;;10481942;28;20342;-70
2023/02/20 11:52:28;;;;;;;1.60;1.50;;;15.50;31.70;;;;;;10483157;28;20297;-70
2023/02/20 11:57:31;;;;;;;1.90;1.70;;;15.60;32.60;;;;;;10478314;28;20622;-70
2023/02/20 12:02:35;;;;;;;3.13;1.43;;;15.70;32.70;;;;;;10475083;28;20224;-69
2023/02/20 12:07:43;;;;;;;4.27;1.93;;;15.90;32.90;;;;;;10484469;28;20259;-70
2023/02/20 12:12:46;;;;;;;2.47;1.77;;;16.00;31.10;;;;;;10473803;28;20731;-69
2023/02/20 12:18:17;;;;;;;1.87;1.50;;;16.10;31.70;;;;;;10478742;28;20700;-69
2023/02/20 12:23:32;;;;;;;2.90;1.80;;;16.10;31.30;;;;;;10442216;28;20235;-69
2023/02/20 12:28:41;;;;;;;1.67;1.57;;;16.10;30.20;;;;;;10485661;28;20239;-68
2023/02/20 12:34:17;;;;;;;2.40;1.63;;;16.10;29.80;;;;;;10481545;28;20232;-69
2023/02/20 12:39:34;;;;;;;1.97;1.70;;;16.10;29.10;;;;;;10467849;28;20228;-69
2023/02/20 12:44:50;;;;;;;1.90;1.70;;;16.20;28.80;;;;;;10482825;28;20607;-69
2023/02/20 12:50:10;;;;;;;1.77;1.57;;;16.20;30.00;;;;;;10487080;28;20227;-69
2023/02/20 12:55:23;;;;;;;2.70;1.77;;;16.20;30.20;;;;;;10473400;28;20735;-69
2023/02/20 13:00:33;;;;;;;2.50;1.70;;;16.20;29.40;;;;;;10489125;28;20239;-69
2023/02/20 13:05:40;;;;;;;1.73;1.63;;;16.30;29.60;;;;;;10483335;28;20241;-69
2023/02/20 13:10:52;;;;;;;2.93;1.60;;;16.30;29.70;;;;;;10471803;28;20236;-69
2023/02/20 13:16:04;;;;;;;2.30;1.63;;;16.30;30.00;;;;;;10484247;28;20227;-69
2023/02/20 13:21:12;;;;;;;3.83;1.97;;;16.40;30.40;;;;;;10461488;28;21027;-70
2023/02/20 13:26:51;;;;;;;2.40;1.90;;;16.50;30.00;;;;;;10469740;28;20641;-69
2023/02/20 13:31:56;;;;;;;4.90;1.70;;;16.50;29.20;;;;;;10464805;28;20229;-69
2023/02/20 13:37:00;;;;;;;3.33;1.50;;;16.60;30.50;;;;;;10468317;28;20240;-69
2023/02/20 13:42:05;;;;;;;2.43;1.50;;;16.70;30.30;;;;;;10471374;28;20231;-69
2023/02/20 13:47:35;;;;;;;2.43;1.50;;;16.70;30.00;;;;;;10472699;28;20240;-69
2023/02/20 13:52:40;;;;;;;4.17;1.43;;;16.80;29.60;;;;;;10471915;28;20234;-69
2023/02/20 13:57:47;;;;;;;3.93;1.90;;;16.80;30.00;;;;;;10468161;28;20232;-69
2023/02/20 14:02:51;;;;;;;2.13;1.40;;;16.80;29.30;;;;;;10465090;28;20228;-69
2023/02/20 14:07:54;;;;;;;2.07;1.50;;;16.80;30.10;;;;;;10476285;28;20243;-69
2023/02/20 14:13:02;;;;;;;2.50;1.20;;;16.80;30.10;;;;;;10472493;28;20705;-69
2023/02/20 14:18:15;;;;;;;1.40;1.30;;;16.90;29.30;;;;;;10474081;28;22028;-69
2023/02/20 14:23:24;;;;;;;1.53;1.30;;;16.90;29.00;;;;;;10473068;28;20738;-69
2023/02/20 14:28:30;;;;;;;2.50;1.20;;;17.00;29.20;;;;;;10482339;28;20247;-69
2023/02/20 14:33:34;;;;;;;1.20;1.10;;;17.00;29.40;;;;;;10474914;28;20254;-68
2023/02/20 14:38:51;;;;;;;1.23;1.10;;;17.00;30.50;;;;;;10478706;28;20265;-69
2023/02/20 14:43:58;;;;;;;1.77;1.20;;;17.10;28.90;;;;;;10474285;28;20275;-71
2023/02/20 14:49:06;;;;;;;1.47;1.20;;;17.20;29.50;;;;;;10482377;28;20228;-69
2023/02/20 14:54:20;;;;;;;1.70;1.40;;;17.20;28.80;;;;;;10477602;28;20227;-69
2023/02/20 14:59:32;;;;;;;1.67;1.10;;;17.30;28.40;;;;;;10478982;28;20629;-69
2023/02/20 15:04:36;;;;;;;2.33;1.20;;;17.40;28.90;;;;;;10470909;28;20235;-69
2023/02/20 15:09:42;;;;;;;1.07;0.97;;;17.40;29.40;;;;;;10482186;28;20242;-68
2023/02/20 15:14:53;;;;;;;1.30;1.07;;;17.50;29.20;;;;;;10483506;28;20235;-68
2023/02/20 15:19:56;;;;;;;1.57;1.00;;;17.50;28.80;;;;;;10483776;28;20254;-69
2023/02/20 15:25:15;;;;;;;2.93;1.00;;;17.50;29.00;;;;;;10483104;28;20754;-69
2023/02/20 15:30:20;;;;;;;0.90;0.90;;;17.40;27.80;;;;;;10483038;28;20239;-68
2023/02/20 15:35:26;;;;;;;0.90;0.90;;;17.50;28.50;;;;;;10490982;28;20290;-68
2023/02/20 15:40:32;;;;;;;1.50;1.00;;;17.50;28.40;;;;;;10490099;28;20711;-68
2023/02/20 15:45:37;;;;;;;1.47;1.10;;;17.50;28.60;;;;;;10489874;28;20239;-68
2023/02/20 15:50:41;;;;;;;1.70;1.20;;;17.50;28.60;;;;;;10485564;28;20236;-69
2023/02/20 15:55:45;;;;;;;1.93;1.07;;;17.50;28.80;;;;;;10487756;28;20333;-69
2023/02/20 16:00:52;;;;;;;3.23;1.10;;;17.50;28.70;;;;;;10478592;28;20235;-69
2023/02/20 16:05:55;;;;;;;1.23;1.00;;;17.40;28.40;;;;;;10480042;28;20600;-69
2023/02/20 16:10:59;;;;;;;1.60;1.30;;;17.40;28.80;;;;;;10476645;28;20654;-68
2023/02/20 16:16:13;;;;;;;2.10;1.20;;;17.40;28.80;;;;;;10474363;28;20240;-69
2023/02/20 16:21:26;;;;;;;1.13;1.00;;;17.30;28.00;;;;;;10482973;28;20311;-69
2023/02/20 16:26:33;;;;;;;1.70;1.30;;;17.30;28.70;;;;;;10474291;28;20291;-68
2023/02/20 16:32:13;;;;;;;4.37;1.70;;;17.20;28.20;;;;;;10475223;28;20580;-69
2023/02/20 16:37:19;;;;;;;2.23;1.27;;;17.20;27.80;;;;;;10480019;28;20252;-69
2023/02/20 16:42:29;;;;;;;2.17;1.20;;;17.10;28.20;;;;;;10478165;28;20240;-69
2023/02/20 16:47:32;;;;;;;4.50;1.30;;;17.10;27.50;;;;;;10476362;28;20232;-70
2023/02/20 16:52:38;;;;;;;2.17;1.60;;;16.90;28.70;;;;;;10460060;28;20717;-70
2023/02/20 16:57:41;;;;;;;4.27;3.30;;;16.90;28.20;;;;;;10477539;28;20228;-69
2023/02/20 17:02:44;;;;;;;3.03;2.10;;;16.80;28.50;;;;;;10474961;28;20230;-67
2023/02/20 17:07:49;;;;;;;3.30;2.57;;;16.70;28.60;;;;;;10475024;28;20758;-67
2023/02/20 17:12:52;;;;;;;4.67;2.33;;;16.60;28.20;;;;;;10475012;28;20232;-69
2023/02/20 17:17:56;;;;;;;4.90;3.20;;;16.50;28.40;;;;;;10481805;28;20228;-69
2023/02/20 17:23:03;;;;;;;2.17;1.97;;;16.30;28.40;;;;;;10481623;28;20633;-69
2023/02/20 17:28:07;;;;;;;2.23;2.00;;;16.20;28.30;;;;;;10473017;28;20333;-69
2023/02/20 17:33:10;;;;;;;2.00;1.60;;;16.10;28.50;;;;;;10478992;28;20243;-69
2023/02/20 17:38:15;;;;;;;2.33;1.80;;;15.90;28.40;;;;;;10481135;28;20235;-69
2023/02/20 17:43:18;;;;;;;3.80;3.40;;;15.80;28.20;;;;;;10479867;28;20227;-69
2023/02/20 17:48:24;;;;;;;7.70;6.93;;;15.60;28.50;;;;;;10489860;28;21046;-69
2023/02/20 17:53:29;;;;;;;8.87;6.33;;;15.30;28.60;;;;;;10473244;28;20239;-69
2023/02/20 17:58:32;;;;;;;7.97;5.97;;;15.10;28.60;;;;;;10474464;28;20232;-69
2023/02/20 18:03:35;;;;;;;7.97;6.47;;;14.90;28.80;;;;;;10473440;28;20502;-69
2023/02/20 18:08:40;;;;;;;7.17;5.13;;;14.80;29.00;;;;;;10472146;28;20328;-69
2023/02/20 18:13:44;;;;;;;5.57;4.37;;;14.70;29.00;;;;;;10474966;28;20520;-69
2023/02/20 18:18:47;;;;;;;5.50;3.67;;;14.60;29.20;;;;;;10472051;28;20258;-69
2023/02/20 18:23:51;;;;;;;12.47;7.70;;;14.60;29.30;;;;;;10464299;28;20231;-69
2023/02/20 18:28:54;;;;;;;19.00;12.53;;;14.50;29.20;;;;;;10478167;28;20254;-69
2023/02/20 18:33:58;;;;;;;7.80;5.80;;;14.40;29.20;;;;;;10480639;28;21243;-69
2023/02/20 18:39:03;;;;;;;7.83;6.50;;;14.20;29.30;;;;;;10476569;28;20228;-69
2023/02/20 18:44:08;;;;;;;5.10;4.20;;;13.90;29.30;;;;;;10473672;28;20236;-70
2023/02/20 18:49:12;;;;;;;3.33;2.83;;;13.70;29.50;;;;;;10477813;28;20233;-70
2023/02/20 18:54:18;;;;;;;3.20;2.90;;;13.60;29.60;;;;;;10481144;28;20242;-69
2023/02/20 18:59:22;;;;;;;4.27;3.40;;;13.60;29.70;;;;;;10473615;28;20597;-69
2023/02/20 19:04:26;;;;;;;3.80;3.50;;;13.60;29.70;;;;;;10465018;28;20240;-69
2023/02/20 19:09:33;;;;;;;4.10;3.40;;;13.50;29.80;;;;;;10457664;28;20237;-70
2023/02/20 19:14:36;;;;;;;4.13;3.53;;;13.40;29.80;;;;;;10486316;28;20240;-69
2023/02/20 19:19:41;;;;;;;4.50;3.63;;;13.30;29.80;;;;;;10463810;28;20695;-69
2023/02/20 19:24:45;;;;;;;4.77;3.97;;;13.30;30.00;;;;;;10473042;28;20601;-69
2023/02/20 19:29:49;;;;;;;6.80;5.90;;;13.20;29.80;;;;;;10480410;28;20727;-69
2023/02/20 19:34:52;;;;;;;5.83;5.10;;;13.20;29.70;;;;;;10475971;28;20259;-69
2023/02/20 19:39:56;;;;;;;5.63;4.50;;;13.10;29.80;;;;;;10469999;28;20227;-69
2023/02/20 19:45:00;;;;;;;5.53;4.60;;;12.90;30.10;;;;;;10468235;28;20232;-69
2023/02/20 19:50:04;;;;;;;6.83;4.97;;;12.80;30.20;;;;;;10468967;28;20695;-74
2023/02/20 19:55:16;;;;;;;5.60;5.00;;;12.60;30.10;;;;;;10470248;28;20708;-74
2023/02/20 20:00:21;;;;;;;5.70;5.10;;;12.50;30.30;;;;;;10476472;28;20442;-74
2023/02/20 20:05:27;;;;;;;4.60;4.20;;;12.40;30.40;;;;;;10477187;28;20573;-74
2023/02/20 20:10:31;;;;;;;5.33;4.30;;;12.30;30.30;;;;;;10482374;28;20800;-74
2023/02/20 20:15:35;;;;;;;4.83;4.23;;;12.20;30.40;;;;;;10476229;28;20236;-69
2023/02/20 20:20:39;;;;;;;4.67;4.10;;;12.10;30.20;;;;;;10478476;28;20228;-70
2023/02/20 20:25:43;;;;;;;4.70;4.07;;;12.00;30.40;;;;;;10482226;28;20235;-70
2023/02/20 20:30:47;;;;;;;6.33;3.87;;;11.90;30.80;;;;;;10484375;28;20248;-70
2023/02/20 20:35:50;;;;;;;5.43;4.87;;;11.80;30.60;;;;;;10477349;28;20747;-70
2023/02/20 20:40:55;;;;;;;6.17;4.60;;;11.80;30.70;;;;;;10474956;28;20605;-70
2023/02/20 20:45:59;;;;;;;5.67;4.70;;;11.70;30.80;;;;;;10475760;28;20235;-67
2023/02/20 20:51:02;;;;;;;6.13;4.10;;;11.70;30.60;;;;;;10474859;28;20232;-68
2023/02/20 20:56:08;;;;;;;6.73;4.23;;;11.70;30.60;;;;;;10470818;28;20240;-68
2023/02/20 21:01:11;;;;;;;5.83;4.30;;;11.60;30.80;;;;;;10463457;28;20236;-67
2023/02/20 21:06:15;;;;;;;5.13;4.63;;;11.50;30.60;;;;;;10467566;28;20319;-67
2023/02/20 21:11:20;;;;;;;6.60;5.17;;;11.40;30.80;;;;;;10473676;28;20232;-67
2023/02/20 21:16:23;;;;;;;4.53;3.77;;;11.30;30.80;;;;;;10466975;28;20962;-74
2023/02/20 21:21:28;;;;;;;4.80;2.67;;;11.30;30.70;;;;;;10471524;28;20236;-74
2023/02/20 21:26:33;;;;;;;2.47;2.10;;;11.30;31.00;;;;;;10462420;28;20236;-73
2023/02/20 21:31:36;;;;;;;2.37;2.00;;;11.40;31.30;;;;;;10468001;28;20224;-73
2023/02/20 21:36:41;;;;;;;3.20;2.00;;;11.50;31.40;;;;;;10470526;28;20280;-73
2023/02/20 21:47:09;;;;;;;2.47;2.27;;;11.80;31.10;;;;;;10467281;28;20232;-73
2023/02/20 21:52:13;;;;;;;3.10;2.80;;;11.90;31.00;;;;;;10470734;28;20616;-73
2023/02/20 21:57:18;;;;;;;4.60;3.13;;;12.00;30.90;;;;;;10463680;28;20245;-74
